< < Back
Terminal Aerodrome Forecast


Current Version              Previous Versions:   1  2  3  4  5  6  7  8  9  

Terminal Aerodrome Forecast

799
FTUS42 KGSP 041125
TAFHKY
TAF
KHKY 041125Z 0412/0512 24006KT P6SM -SHRA BKN060
     FM041400 23006KT P6SM VCSH BKN045
     FM042000 24005KT P6SM -SHRA VCTS SCT040 BKN080CB
     FM050500 25003KT P6SM BKN110
     FM051100 00000KT P6SM OVC110=



Latest METAR

615
SAUS70 KWBC 050700 RRL
MTRHKY
METAR KHKY 050653Z 00000KT 10SM CLR 22/19 A3008 RMK AO2 SLP161
T02170194


USA.gov is the U.S. government's official web portal to all federal, state and local government web resources and services.